Карточка аэропорта UWKD

Внимание!
Информация на этой странице в стадии наполнения.
Если вы не увидели какой-то информации, или заметили неточность - пожалуйста сообщите нам!
Спасибо!
Команда RU-STAFF
Название аэропортаКазань
Название аэропорта (англ.)Kazan
Превышение413 ft. (125.9 m.)
Координаты55°36.498', 49°16.668'
Высота перехода900m
Эшелон переходаQFE>=749mm:FL050; QFE<749=>722:FL060; QFE<722:FL070
Коды ответчика6732-6737
Зона ОрВДСамара РПИ (UWWW)
Данные METARUWKD 271030Z 16004MPS 9999 FEW020 M16/M18 Q1018 R11/810050 NOSIG RMK QFE753/1005
Проноз погоды (TAF)FXW UWKD 250351Z 2504/2603 21006G13MPS 2200 -SN BLSN OVC010 TXM01/2509Z TNM08/2523Z TEMPO 2504/2509 0700 +SHSN BLSN BKN003 BKN018CB FM250900 27008G15MPS 9999 BKN016 TEMPO 2509/2515 1000 SHSN BLSN BKN005 BKN020CB
NOTAMshow/hide NOTAM
AWOS   TABLE

Информация о ВПП

ВПП Длина ВПП (м.) Покрытие Курс ВПП Частота ILS
113750Цементобетон112110.5
293750Цементобетон292111.7

Диспетчерские позиции

Позывной Наименование органа УВД Частота
UWKD_R_APPКазань-Круг119.400
UWKD_TWRКазань-Старт120.300
UWKD_GNDКазань-Руление121.7
UWKD_APPКазань - Подход128.625



Спутниковое изображение